sensor_id;sensor_type;location;lat;lon;timestamp;P1;durP1;ratioP1;P2;durP2;ratioP2
74660;SDS011;63191;39.566;2.654;2023-04-09T00:00:38;4.80;;;1.10;;
74660;SDS011;63191;39.566;2.654;2023-04-09T00:03:04;7.30;;;1.50;;
74660;SDS011;63191;39.566;2.654;2023-04-09T00:05:30;5.80;;;1.10;;
74660;SDS011;63191;39.566;2.654;2023-04-09T00:07:56;7.10;;;1.20;;
74660;SDS011;63191;39.566;2.654;2023-04-09T00:10:22;5.90;;;1.20;;
74660;SDS011;63191;39.566;2.654;2023-04-09T00:12:47;3.90;;;1.00;;
74660;SDS011;63191;39.566;2.654;2023-04-09T00:15:13;5.30;;;1.30;;
74660;SDS011;63191;39.566;2.654;2023-04-09T00:17:39;4.30;;;1.00;;
74660;SDS011;63191;39.566;2.654;2023-04-09T00:20:06;4.90;;;1.20;;
74660;SDS011;63191;39.566;2.654;2023-04-09T00:22:32;4.60;;;1.10;;
74660;SDS011;63191;39.566;2.654;2023-04-09T00:24:58;7.90;;;1.50;;
74660;SDS011;63191;39.566;2.654;2023-04-09T00:27:23;5.90;;;1.50;;
74660;SDS011;63191;39.566;2.654;2023-04-09T00:29:52;4.70;;;1.00;;
74660;SDS011;63191;39.566;2.654;2023-04-09T00:32:20;6.50;;;1.20;;
74660;SDS011;63191;39.566;2.654;2023-04-09T00:34:46;3.50;;;1.00;;
74660;SDS011;63191;39.566;2.654;2023-04-09T00:37:12;4.60;;;1.50;;
74660;SDS011;63191;39.566;2.654;2023-04-09T00:39:38;5.10;;;1.30;;
74660;SDS011;63191;39.566;2.654;2023-04-09T00:42:04;4.20;;;1.10;;
74660;SDS011;63191;39.566;2.654;2023-04-09T00:44:30;5.90;;;1.00;;
74660;SDS011;63191;39.566;2.654;2023-04-09T00:46:58;5.60;;;1.30;;
74660;SDS011;63191;39.566;2.654;2023-04-09T00:49:25;5.50;;;1.60;;
74660;SDS011;63191;39.566;2.654;2023-04-09T00:51:51;3.80;;;1.10;;
74660;SDS011;63191;39.566;2.654;2023-04-09T00:54:17;5.80;;;1.30;;
74660;SDS011;63191;39.566;2.654;2023-04-09T00:56:44;7.80;;;1.70;;
74660;SDS011;63191;39.566;2.654;2023-04-09T00:59:10;8.90;;;1.60;;
74660;SDS011;63191;39.566;2.654;2023-04-09T01:01:36;5.70;;;1.50;;
74660;SDS011;63191;39.566;2.654;2023-04-09T01:04:02;8.00;;;1.90;;
74660;SDS011;63191;39.566;2.654;2023-04-09T01:06:44;6.70;;;1.70;;
74660;SDS011;63191;39.566;2.654;2023-04-09T01:09:29;5.60;;;1.30;;
74660;SDS011;63191;39.566;2.654;2023-04-09T01:12:15;5.40;;;1.20;;
74660;SDS011;63191;39.566;2.654;2023-04-09T01:14:58;5.50;;;1.60;;
74660;SDS011;63191;39.566;2.654;2023-04-09T01:20:32;7.90;;;1.70;;
74660;SDS011;63191;39.566;2.654;2023-04-09T01:23:41;5.90;;;1.40;;
74660;SDS011;63191;39.566;2.654;2023-04-09T01:26:20;4.50;;;1.30;;
74660;SDS011;63191;39.566;2.654;2023-04-09T01:28:55;5.00;;;1.70;;
74660;SDS011;63191;39.566;2.654;2023-04-09T01:31:34;6.00;;;1.40;;
74660;SDS011;63191;39.566;2.654;2023-04-09T01:34:02;5.20;;;1.20;;
74660;SDS011;63191;39.566;2.654;2023-04-09T01:36:30;5.30;;;1.20;;
74660;SDS011;63191;39.566;2.654;2023-04-09T01:38:59;5.20;;;1.20;;
74660;SDS011;63191;39.566;2.654;2023-04-09T01:41:25;5.10;;;1.20;;
74660;SDS011;63191;39.566;2.654;2023-04-09T01:43:52;4.80;;;1.20;;
74660;SDS011;63191;39.566;2.654;2023-04-09T01:46:19;5.10;;;1.40;;
74660;SDS011;63191;39.566;2.654;2023-04-09T01:48:45;5.30;;;1.20;;
74660;SDS011;63191;39.566;2.654;2023-04-09T01:51:12;6.40;;;1.20;;
74660;SDS011;63191;39.566;2.654;2023-04-09T01:53:39;4.00;;;1.20;;
74660;SDS011;63191;39.566;2.654;2023-04-09T01:56:07;4.10;;;1.20;;
74660;SDS011;63191;39.566;2.654;2023-04-09T01:58:33;5.30;;;1.30;;
74660;SDS011;63191;39.566;2.654;2023-04-09T02:01:41;7.10;;;1.30;;
74660;SDS011;63191;39.566;2.654;2023-04-09T02:04:16;5.20;;;1.30;;
74660;SDS011;63191;39.566;2.654;2023-04-09T02:09:40;5.40;;;1.60;;
74660;SDS011;63191;39.566;2.654;2023-04-09T02:12:11;6.30;;;1.30;;
74660;SDS011;63191;39.566;2.654;2023-04-09T02:14:40;6.30;;;1.30;;
74660;SDS011;63191;39.566;2.654;2023-04-09T02:17:06;5.70;;;1.50;;
74660;SDS011;63191;39.566;2.654;2023-04-09T02:19:39;4.90;;;1.20;;
74660;SDS011;63191;39.566;2.654;2023-04-09T02:22:06;5.20;;;1.20;;
74660;SDS011;63191;39.566;2.654;2023-04-09T02:24:32;4.60;;;1.10;;
74660;SDS011;63191;39.566;2.654;2023-04-09T02:26:58;5.90;;;1.20;;
74660;SDS011;63191;39.566;2.654;2023-04-09T02:29:23;2.90;;;0.90;;
74660;SDS011;63191;39.566;2.654;2023-04-09T02:31:49;6.40;;;0.80;;
74660;SDS011;63191;39.566;2.654;2023-04-09T02:34:18;6.70;;;1.30;;
74660;SDS011;63191;39.566;2.654;2023-04-09T02:36:44;5.20;;;1.00;;
74660;SDS011;63191;39.566;2.654;2023-04-09T02:39:10;4.70;;;1.00;;
74660;SDS011;63191;39.566;2.654;2023-04-09T02:41:35;3.80;;;0.90;;
74660;SDS011;63191;39.566;2.654;2023-04-09T02:44:01;4.80;;;0.90;;
74660;SDS011;63191;39.566;2.654;2023-04-09T02:46:28;4.80;;;1.30;;
74660;SDS011;63191;39.566;2.654;2023-04-09T02:48:53;6.30;;;1.10;;
74660;SDS011;63191;39.566;2.654;2023-04-09T02:51:19;4.00;;;0.90;;
74660;SDS011;63191;39.566;2.654;2023-04-09T02:53:45;6.40;;;1.30;;
74660;SDS011;63191;39.566;2.654;2023-04-09T02:56:11;8.40;;;1.30;;
74660;SDS011;63191;39.566;2.654;2023-04-09T02:58:36;5.60;;;1.60;;
74660;SDS011;63191;39.566;2.654;2023-04-09T03:01:02;4.20;;;0.80;;
74660;SDS011;63191;39.566;2.654;2023-04-09T03:03:28;6.60;;;1.30;;
74660;SDS011;63191;39.566;2.654;2023-04-09T03:05:55;5.50;;;1.20;;
74660;SDS011;63191;39.566;2.654;2023-04-09T03:08:21;4.80;;;1.10;;
74660;SDS011;63191;39.566;2.654;2023-04-09T03:10:46;5.60;;;1.30;;
74660;SDS011;63191;39.566;2.654;2023-04-09T03:13:12;4.60;;;1.20;;
74660;SDS011;63191;39.566;2.654;2023-04-09T03:15:38;6.20;;;1.40;;
74660;SDS011;63191;39.566;2.654;2023-04-09T03:18:03;5.70;;;1.20;;
74660;SDS011;63191;39.566;2.654;2023-04-09T03:20:29;3.90;;;1.10;;
74660;SDS011;63191;39.566;2.654;2023-04-09T03:22:55;5.60;;;1.20;;
74660;SDS011;63191;39.566;2.654;2023-04-09T03:25:21;5.80;;;1.20;;
74660;SDS011;63191;39.566;2.654;2023-04-09T03:27:47;5.30;;;1.40;;
74660;SDS011;63191;39.566;2.654;2023-04-09T03:30:12;5.30;;;1.30;;
74660;SDS011;63191;39.566;2.654;2023-04-09T03:32:38;5.10;;;1.10;;
74660;SDS011;63191;39.566;2.654;2023-04-09T03:35:04;3.80;;;0.90;;
74660;SDS011;63191;39.566;2.654;2023-04-09T03:37:30;4.80;;;1.10;;
74660;SDS011;63191;39.566;2.654;2023-04-09T03:39:57;5.20;;;1.30;;
74660;SDS011;63191;39.566;2.654;2023-04-09T03:42:23;4.80;;;1.00;;
74660;SDS011;63191;39.566;2.654;2023-04-09T03:44:48;5.60;;;1.10;;
74660;SDS011;63191;39.566;2.654;2023-04-09T03:47:14;5.40;;;1.10;;
74660;SDS011;63191;39.566;2.654;2023-04-09T03:49:40;5.10;;;1.10;;
74660;SDS011;63191;39.566;2.654;2023-04-09T03:52:05;4.60;;;0.90;;
74660;SDS011;63191;39.566;2.654;2023-04-09T03:54:31;4.10;;;0.90;;
74660;SDS011;63191;39.566;2.654;2023-04-09T03:56:57;3.90;;;0.80;;
74660;SDS011;63191;39.566;2.654;2023-04-09T03:59:23;4.90;;;1.10;;
74660;SDS011;63191;39.566;2.654;2023-04-09T04:01:49;3.10;;;0.80;;
74660;SDS011;63191;39.566;2.654;2023-04-09T04:04:14;4.80;;;0.90;;
74660;SDS011;63191;39.566;2.654;2023-04-09T04:06:40;4.10;;;0.70;;
74660;SDS011;63191;39.566;2.654;2023-04-09T04:09:06;5.30;;;1.10;;
74660;SDS011;63191;39.566;2.654;2023-04-09T04:11:32;3.60;;;0.80;;
74660;SDS011;63191;39.566;2.654;2023-04-09T04:13:57;4.40;;;0.80;;
74660;SDS011;63191;39.566;2.654;2023-04-09T04:16:23;3.70;;;1.10;;
74660;SDS011;63191;39.566;2.654;2023-04-09T04:18:50;4.40;;;0.80;;
74660;SDS011;63191;39.566;2.654;2023-04-09T04:21:16;5.00;;;1.00;;
74660;SDS011;63191;39.566;2.654;2023-04-09T04:23:42;7.10;;;1.00;;
74660;SDS011;63191;39.566;2.654;2023-04-09T04:26:08;5.20;;;1.10;;
74660;SDS011;63191;39.566;2.654;2023-04-09T04:28:38;4.50;;;0.90;;
74660;SDS011;63191;39.566;2.654;2023-04-09T04:31:08;4.60;;;1.00;;
74660;SDS011;63191;39.566;2.654;2023-04-09T04:33:37;4.20;;;0.90;;
74660;SDS011;63191;39.566;2.654;2023-04-09T04:36:05;4.10;;;0.80;;
74660;SDS011;63191;39.566;2.654;2023-04-09T04:38:36;4.70;;;1.10;;
74660;SDS011;63191;39.566;2.654;2023-04-09T04:41:03;4.80;;;1.00;;
74660;SDS011;63191;39.566;2.654;2023-04-09T04:43:29;3.30;;;0.80;;
74660;SDS011;63191;39.566;2.654;2023-04-09T04:45:56;5.20;;;0.90;;
74660;SDS011;63191;39.566;2.654;2023-04-09T04:48:22;5.90;;;1.00;;
74660;SDS011;63191;39.566;2.654;2023-04-09T04:50:59;5.20;;;0.90;;
74660;SDS011;63191;39.566;2.654;2023-04-09T04:53:26;3.30;;;0.80;;
74660;SDS011;63191;39.566;2.654;2023-04-09T04:55:53;3.90;;;0.90;;
74660;SDS011;63191;39.566;2.654;2023-04-09T04:58:19;5.50;;;0.90;;
74660;SDS011;63191;39.566;2.654;2023-04-09T05:00:45;3.70;;;0.80;;
74660;SDS011;63191;39.566;2.654;2023-04-09T05:03:11;5.50;;;1.30;;
74660;SDS011;63191;39.566;2.654;2023-04-09T05:05:37;3.70;;;1.10;;
74660;SDS011;63191;39.566;2.654;2023-04-09T05:08:03;6.90;;;1.00;;
74660;SDS011;63191;39.566;2.654;2023-04-09T05:10:29;4.10;;;1.00;;
74660;SDS011;63191;39.566;2.654;2023-04-09T05:12:55;9.80;;;1.40;;
74660;SDS011;63191;39.566;2.654;2023-04-09T05:15:21;5.40;;;0.90;;
74660;SDS011;63191;39.566;2.654;2023-04-09T05:17:46;3.70;;;0.90;;
74660;SDS011;63191;39.566;2.654;2023-04-09T05:20:12;3.70;;;0.90;;
74660;SDS011;63191;39.566;2.654;2023-04-09T05:22:38;4.70;;;0.80;;
74660;SDS011;63191;39.566;2.654;2023-04-09T05:25:04;3.80;;;0.90;;
74660;SDS011;63191;39.566;2.654;2023-04-09T05:27:30;4.80;;;1.00;;
74660;SDS011;63191;39.566;2.654;2023-04-09T05:29:56;5.50;;;1.30;;
74660;SDS011;63191;39.566;2.654;2023-04-09T05:32:21;5.40;;;0.90;;
74660;SDS011;63191;39.566;2.654;2023-04-09T05:34:47;3.70;;;1.00;;
74660;SDS011;63191;39.566;2.654;2023-04-09T05:37:13;3.90;;;1.10;;
74660;SDS011;63191;39.566;2.654;2023-04-09T05:39:39;5.10;;;1.00;;
74660;SDS011;63191;39.566;2.654;2023-04-09T05:42:05;4.10;;;0.80;;
74660;SDS011;63191;39.566;2.654;2023-04-09T05:44:31;5.20;;;0.90;;
74660;SDS011;63191;39.566;2.654;2023-04-09T05:46:56;4.60;;;1.00;;
74660;SDS011;63191;39.566;2.654;2023-04-09T05:49:22;4.30;;;1.00;;
74660;SDS011;63191;39.566;2.654;2023-04-09T05:51:49;5.00;;;1.00;;
74660;SDS011;63191;39.566;2.654;2023-04-09T05:54:15;4.50;;;1.10;;
74660;SDS011;63191;39.566;2.654;2023-04-09T05:56:43;4.00;;;1.10;;
74660;SDS011;63191;39.566;2.654;2023-04-09T05:59:09;6.00;;;1.80;;
74660;SDS011;63191;39.566;2.654;2023-04-09T06:01:34;5.10;;;1.20;;
74660;SDS011;63191;39.566;2.654;2023-04-09T06:04:00;6.60;;;1.50;;
74660;SDS011;63191;39.566;2.654;2023-04-09T06:06:26;4.60;;;1.50;;
74660;SDS011;63191;39.566;2.654;2023-04-09T06:08:51;7.00;;;1.60;;
74660;SDS011;63191;39.566;2.654;2023-04-09T06:11:17;5.40;;;1.40;;
74660;SDS011;63191;39.566;2.654;2023-04-09T06:13:43;5.90;;;1.60;;
74660;SDS011;63191;39.566;2.654;2023-04-09T06:16:09;6.00;;;1.60;;
74660;SDS011;63191;39.566;2.654;2023-04-09T06:18:38;6.20;;;1.70;;
74660;SDS011;63191;39.566;2.654;2023-04-09T06:21:04;5.00;;;1.40;;
74660;SDS011;63191;39.566;2.654;2023-04-09T06:23:34;5.20;;;1.40;;
74660;SDS011;63191;39.566;2.654;2023-04-09T06:26:01;4.90;;;1.40;;
74660;SDS011;63191;39.566;2.654;2023-04-09T06:28:28;4.50;;;1.70;;
74660;SDS011;63191;39.566;2.654;2023-04-09T06:30:56;4.60;;;1.20;;
74660;SDS011;63191;39.566;2.654;2023-04-09T06:33:23;4.60;;;1.20;;
74660;SDS011;63191;39.566;2.654;2023-04-09T06:35:49;4.90;;;1.40;;
74660;SDS011;63191;39.566;2.654;2023-04-09T06:38:16;4.40;;;1.50;;
74660;SDS011;63191;39.566;2.654;2023-04-09T06:40:42;4.50;;;1.20;;
74660;SDS011;63191;39.566;2.654;2023-04-09T06:43:08;7.40;;;1.40;;
74660;SDS011;63191;39.566;2.654;2023-04-09T06:45:34;6.50;;;1.60;;
74660;SDS011;63191;39.566;2.654;2023-04-09T06:48:02;6.90;;;3.50;;
74660;SDS011;63191;39.566;2.654;2023-04-09T06:50:28;7.20;;;1.70;;
74660;SDS011;63191;39.566;2.654;2023-04-09T06:52:54;6.00;;;2.10;;
74660;SDS011;63191;39.566;2.654;2023-04-09T06:55:20;5.40;;;1.70;;
74660;SDS011;63191;39.566;2.654;2023-04-09T06:57:46;6.40;;;2.20;;
74660;SDS011;63191;39.566;2.654;2023-04-09T07:00:12;6.10;;;2.50;;
74660;SDS011;63191;39.566;2.654;2023-04-09T07:02:38;7.30;;;2.50;;
74660;SDS011;63191;39.566;2.654;2023-04-09T07:05:04;5.60;;;2.00;;
74660;SDS011;63191;39.566;2.654;2023-04-09T07:07:30;4.80;;;2.00;;
74660;SDS011;63191;39.566;2.654;2023-04-09T07:09:56;6.00;;;2.40;;
74660;SDS011;63191;39.566;2.654;2023-04-09T07:12:30;7.50;;;2.30;;
74660;SDS011;63191;39.566;2.654;2023-04-09T07:15:02;6.40;;;2.10;;
74660;SDS011;63191;39.566;2.654;2023-04-09T07:17:30;5.70;;;2.50;;
74660;SDS011;63191;39.566;2.654;2023-04-09T07:19:56;5.20;;;1.70;;
74660;SDS011;63191;39.566;2.654;2023-04-09T07:22:26;8.60;;;2.20;;
74660;SDS011;63191;39.566;2.654;2023-04-09T07:24:52;6.50;;;1.80;;
74660;SDS011;63191;39.566;2.654;2023-04-09T07:27:24;4.50;;;1.60;;
74660;SDS011;63191;39.566;2.654;2023-04-09T07:29:55;5.00;;;1.60;;
74660;SDS011;63191;39.566;2.654;2023-04-09T07:32:23;5.30;;;2.30;;
74660;SDS011;63191;39.566;2.654;2023-04-09T07:34:53;7.50;;;2.70;;
74660;SDS011;63191;39.566;2.654;2023-04-09T07:37:19;7.60;;;2.30;;
74660;SDS011;63191;39.566;2.654;2023-04-09T07:39:46;6.80;;;1.90;;
74660;SDS011;63191;39.566;2.654;2023-04-09T07:42:12;5.90;;;1.50;;
74660;SDS011;63191;39.566;2.654;2023-04-09T07:44:38;5.80;;;1.60;;
74660;SDS011;63191;39.566;2.654;2023-04-09T07:47:05;5.10;;;1.30;;
74660;SDS011;63191;39.566;2.654;2023-04-09T07:49:32;6.50;;;2.10;;
74660;SDS011;63191;39.566;2.654;2023-04-09T07:52:02;7.80;;;2.00;;
74660;SDS011;63191;39.566;2.654;2023-04-09T07:54:29;4.90;;;1.60;;
74660;SDS011;63191;39.566;2.654;2023-04-09T07:56:56;7.50;;;2.00;;
74660;SDS011;63191;39.566;2.654;2023-04-09T07:59:22;7.80;;;2.40;;
74660;SDS011;63191;39.566;2.654;2023-04-09T08:01:49;6.90;;;2.90;;
74660;SDS011;63191;39.566;2.654;2023-04-09T08:04:14;8.70;;;2.80;;
74660;SDS011;63191;39.566;2.654;2023-04-09T08:06:40;9.90;;;3.00;;
74660;SDS011;63191;39.566;2.654;2023-04-09T08:09:06;10.20;;;2.90;;
74660;SDS011;63191;39.566;2.654;2023-04-09T08:11:32;11.40;;;3.50;;
74660;SDS011;63191;39.566;2.654;2023-04-09T08:13:58;9.80;;;3.50;;
74660;SDS011;63191;39.566;2.654;2023-04-09T08:16:27;10.30;;;3.70;;
74660;SDS011;63191;39.566;2.654;2023-04-09T08:18:55;10.20;;;3.80;;
74660;SDS011;63191;39.566;2.654;2023-04-09T08:21:21;9.00;;;3.80;;
74660;SDS011;63191;39.566;2.654;2023-04-09T08:23:47;8.80;;;3.20;;
74660;SDS011;63191;39.566;2.654;2023-04-09T08:26:13;9.50;;;3.90;;
74660;SDS011;63191;39.566;2.654;2023-04-09T08:28:39;8.10;;;2.90;;
74660;SDS011;63191;39.566;2.654;2023-04-09T08:31:04;9.20;;;3.00;;
74660;SDS011;63191;39.566;2.654;2023-04-09T08:33:30;9.60;;;3.60;;
74660;SDS011;63191;39.566;2.654;2023-04-09T08:35:56;7.50;;;2.90;;
74660;SDS011;63191;39.566;2.654;2023-04-09T08:38:21;6.10;;;2.10;;
74660;SDS011;63191;39.566;2.654;2023-04-09T08:40:47;5.70;;;1.60;;
74660;SDS011;63191;39.566;2.654;2023-04-09T08:43:23;5.60;;;1.10;;
74660;SDS011;63191;39.566;2.654;2023-04-09T08:45:54;4.40;;;1.20;;
74660;SDS011;63191;39.566;2.654;2023-04-09T08:48:23;7.00;;;2.00;;
74660;SDS011;63191;39.566;2.654;2023-04-09T08:50:49;5.90;;;1.40;;
74660;SDS011;63191;39.566;2.654;2023-04-09T08:53:16;5.90;;;1.50;;
74660;SDS011;63191;39.566;2.654;2023-04-09T08:55:47;5.20;;;1.40;;
74660;SDS011;63191;39.566;2.654;2023-04-09T08:58:13;5.00;;;1.20;;
74660;SDS011;63191;39.566;2.654;2023-04-09T09:00:39;5.80;;;1.20;;
74660;SDS011;63191;39.566;2.654;2023-04-09T09:03:08;5.40;;;1.30;;
74660;SDS011;63191;39.566;2.654;2023-04-09T09:05:43;6.30;;;1.70;;
74660;SDS011;63191;39.566;2.654;2023-04-09T09:08:12;5.40;;;1.30;;
74660;SDS011;63191;39.566;2.654;2023-04-09T09:10:47;5.50;;;1.20;;
74660;SDS011;63191;39.566;2.654;2023-04-09T09:13:24;6.20;;;1.30;;
74660;SDS011;63191;39.566;2.654;2023-04-09T09:15:52;5.50;;;1.30;;
74660;SDS011;63191;39.566;2.654;2023-04-09T09:18:37;6.00;;;1.40;;
74660;SDS011;63191;39.566;2.654;2023-04-09T09:23:37;5.70;;;1.50;;
74660;SDS011;63191;39.566;2.654;2023-04-09T09:26:18;4.70;;;1.20;;
74660;SDS011;63191;39.566;2.654;2023-04-09T09:28:49;7.80;;;1.40;;
74660;SDS011;63191;39.566;2.654;2023-04-09T09:31:18;6.40;;;1.20;;
74660;SDS011;63191;39.566;2.654;2023-04-09T09:33:45;3.80;;;1.10;;
74660;SDS011;63191;39.566;2.654;2023-04-09T09:36:14;4.50;;;1.20;;
74660;SDS011;63191;39.566;2.654;2023-04-09T09:38:54;7.00;;;1.70;;
74660;SDS011;63191;39.566;2.654;2023-04-09T09:41:22;5.40;;;1.70;;
74660;SDS011;63191;39.566;2.654;2023-04-09T09:43:49;3.90;;;1.20;;
74660;SDS011;63191;39.566;2.654;2023-04-09T09:46:15;6.60;;;1.80;;
74660;SDS011;63191;39.566;2.654;2023-04-09T09:48:43;5.80;;;1.50;;
74660;SDS011;63191;39.566;2.654;2023-04-09T09:51:13;5.30;;;1.20;;
74660;SDS011;63191;39.566;2.654;2023-04-09T09:53:42;6.90;;;1.40;;
74660;SDS011;63191;39.566;2.654;2023-04-09T09:56:30;4.50;;;1.00;;
74660;SDS011;63191;39.566;2.654;2023-04-09T10:01:33;5.80;;;1.30;;
74660;SDS011;63191;39.566;2.654;2023-04-09T10:04:03;4.60;;;1.20;;
74660;SDS011;63191;39.566;2.654;2023-04-09T10:06:32;5.20;;;1.00;;
74660;SDS011;63191;39.566;2.654;2023-04-09T10:09:03;4.30;;;0.90;;
74660;SDS011;63191;39.566;2.654;2023-04-09T10:11:35;6.20;;;1.10;;
74660;SDS011;63191;39.566;2.654;2023-04-09T10:14:02;5.20;;;0.80;;
74660;SDS011;63191;39.566;2.654;2023-04-09T10:16:32;5.70;;;0.90;;
74660;SDS011;63191;39.566;2.654;2023-04-09T10:18:58;3.10;;;0.70;;
74660;SDS011;63191;39.566;2.654;2023-04-09T10:24:09;4.00;;;0.80;;
74660;SDS011;63191;39.566;2.654;2023-04-09T10:26:39;3.50;;;0.80;;
74660;SDS011;63191;39.566;2.654;2023-04-09T10:29:15;5.40;;;0.90;;
74660;SDS011;63191;39.566;2.654;2023-04-09T10:32:05;3.20;;;0.70;;
74660;SDS011;63191;39.566;2.654;2023-04-09T10:34:42;3.20;;;0.60;;
74660;SDS011;63191;39.566;2.654;2023-04-09T10:37:22;3.70;;;0.50;;
74660;SDS011;63191;39.566;2.654;2023-04-09T10:39:50;4.60;;;0.80;;
74660;SDS011;63191;39.566;2.654;2023-04-09T10:42:35;4.60;;;1.10;;
74660;SDS011;63191;39.566;2.654;2023-04-09T10:45:09;2.90;;;0.80;;
74660;SDS011;63191;39.566;2.654;2023-04-09T10:47:41;3.80;;;0.90;;
74660;SDS011;63191;39.566;2.654;2023-04-09T10:52:53;3.00;;;0.80;;
74660;SDS011;63191;39.566;2.654;2023-04-09T10:55:40;4.60;;;0.90;;
74660;SDS011;63191;39.566;2.654;2023-04-09T10:58:08;4.60;;;0.80;;
74660;SDS011;63191;39.566;2.654;2023-04-09T11:00:39;3.20;;;0.90;;
74660;SDS011;63191;39.566;2.654;2023-04-09T11:03:24;5.40;;;0.80;;
74660;SDS011;63191;39.566;2.654;2023-04-09T11:06:03;2.40;;;0.50;;
74660;SDS011;63191;39.566;2.654;2023-04-09T11:08:33;4.90;;;0.70;;
74660;SDS011;63191;39.566;2.654;2023-04-09T11:11:03;2.10;;;0.60;;
74660;SDS011;63191;39.566;2.654;2023-04-09T11:13:31;3.10;;;0.60;;
74660;SDS011;63191;39.566;2.654;2023-04-09T11:15:57;2.40;;;0.60;;
74660;SDS011;63191;39.566;2.654;2023-04-09T11:18:27;2.20;;;0.50;;
74660;SDS011;63191;39.566;2.654;2023-04-09T11:21:00;3.00;;;0.70;;
74660;SDS011;63191;39.566;2.654;2023-04-09T11:23:27;7.70;;;0.80;;
74660;SDS011;63191;39.566;2.654;2023-04-09T11:25:54;5.40;;;0.80;;
74660;SDS011;63191;39.566;2.654;2023-04-09T11:28:23;2.50;;;0.80;;
74660;SDS011;63191;39.566;2.654;2023-04-09T11:30:52;4.40;;;0.60;;
74660;SDS011;63191;39.566;2.654;2023-04-09T11:33:17;4.10;;;0.80;;
74660;SDS011;63191;39.566;2.654;2023-04-09T11:35:43;4.20;;;0.80;;
74660;SDS011;63191;39.566;2.654;2023-04-09T11:38:10;3.80;;;0.70;;
74660;SDS011;63191;39.566;2.654;2023-04-09T11:40:39;4.60;;;0.60;;
74660;SDS011;63191;39.566;2.654;2023-04-09T11:43:12;2.40;;;0.70;;
74660;SDS011;63191;39.566;2.654;2023-04-09T11:45:40;5.50;;;0.80;;
74660;SDS011;63191;39.566;2.654;2023-04-09T11:48:06;2.80;;;0.70;;
74660;SDS011;63191;39.566;2.654;2023-04-09T11:50:32;3.60;;;0.80;;
74660;SDS011;63191;39.566;2.654;2023-04-09T11:52:58;4.20;;;0.70;;
74660;SDS011;63191;39.566;2.654;2023-04-09T11:55:26;4.50;;;0.80;;
74660;SDS011;63191;39.566;2.654;2023-04-09T11:57:56;2.40;;;0.60;;
74660;SDS011;63191;39.566;2.654;2023-04-09T12:00:25;3.20;;;0.70;;
74660;SDS011;63191;39.566;2.654;2023-04-09T12:03:02;3.10;;;0.50;;
74660;SDS011;63191;39.566;2.654;2023-04-09T12:05:30;2.80;;;0.50;;
74660;SDS011;63191;39.566;2.654;2023-04-09T12:07:59;3.30;;;0.70;;
74660;SDS011;63191;39.566;2.654;2023-04-09T12:10:30;4.20;;;0.90;;
74660;SDS011;63191;39.566;2.654;2023-04-09T12:13:02;2.60;;;0.50;;
74660;SDS011;63191;39.566;2.654;2023-04-09T12:15:33;4.50;;;0.60;;
74660;SDS011;63191;39.566;2.654;2023-04-09T12:18:01;4.60;;;0.70;;
74660;SDS011;63191;39.566;2.654;2023-04-09T12:20:36;4.40;;;0.40;;
74660;SDS011;63191;39.566;2.654;2023-04-09T12:23:11;4.60;;;0.70;;
74660;SDS011;63191;39.566;2.654;2023-04-09T12:25:42;6.50;;;0.70;;
74660;SDS011;63191;39.566;2.654;2023-04-09T12:28:13;4.00;;;0.70;;
74660;SDS011;63191;39.566;2.654;2023-04-09T12:30:41;4.40;;;0.80;;
74660;SDS011;63191;39.566;2.654;2023-04-09T12:33:07;2.60;;;0.70;;
74660;SDS011;63191;39.566;2.654;2023-04-09T12:35:33;2.70;;;0.80;;
74660;SDS011;63191;39.566;2.654;2023-04-09T12:38:00;3.50;;;0.80;;
74660;SDS011;63191;39.566;2.654;2023-04-09T12:40:26;2.80;;;1.00;;
74660;SDS011;63191;39.566;2.654;2023-04-09T12:42:52;3.20;;;1.20;;
74660;SDS011;63191;39.566;2.654;2023-04-09T12:45:20;3.80;;;1.40;;
74660;SDS011;63191;39.566;2.654;2023-04-09T12:47:46;4.10;;;1.90;;
74660;SDS011;63191;39.566;2.654;2023-04-09T12:50:12;4.40;;;2.00;;
74660;SDS011;63191;39.566;2.654;2023-04-09T12:52:40;6.50;;;2.10;;
74660;SDS011;63191;39.566;2.654;2023-04-09T12:55:07;5.30;;;2.60;;
74660;SDS011;63191;39.566;2.654;2023-04-09T12:57:33;4.90;;;2.40;;
74660;SDS011;63191;39.566;2.654;2023-04-09T12:59:59;6.10;;;3.00;;
74660;SDS011;63191;39.566;2.654;2023-04-09T13:02:25;4.70;;;2.40;;
74660;SDS011;63191;39.566;2.654;2023-04-09T13:04:50;6.90;;;3.20;;
74660;SDS011;63191;39.566;2.654;2023-04-09T13:07:17;5.90;;;3.10;;
74660;SDS011;63191;39.566;2.654;2023-04-09T13:09:46;4.80;;;2.90;;
74660;SDS011;63191;39.566;2.654;2023-04-09T13:12:15;5.00;;;3.20;;
74660;SDS011;63191;39.566;2.654;2023-04-09T13:14:45;5.60;;;2.80;;
74660;SDS011;63191;39.566;2.654;2023-04-09T13:17:11;5.90;;;2.90;;
74660;SDS011;63191;39.566;2.654;2023-04-09T13:19:37;5.30;;;2.80;;
74660;SDS011;63191;39.566;2.654;2023-04-09T13:22:03;5.30;;;2.80;;
74660;SDS011;63191;39.566;2.654;2023-04-09T13:24:35;7.40;;;2.90;;
74660;SDS011;63191;39.566;2.654;2023-04-09T13:27:05;5.20;;;2.50;;
74660;SDS011;63191;39.566;2.654;2023-04-09T13:29:34;4.00;;;2.10;;
74660;SDS011;63191;39.566;2.654;2023-04-09T13:32:00;5.30;;;2.20;;
74660;SDS011;63191;39.566;2.654;2023-04-09T13:34:32;5.80;;;1.80;;
74660;SDS011;63191;39.566;2.654;2023-04-09T13:36:59;4.70;;;2.00;;
74660;SDS011;63191;39.566;2.654;2023-04-09T13:39:25;3.80;;;1.70;;
74660;SDS011;63191;39.566;2.654;2023-04-09T13:41:51;4.30;;;1.50;;
74660;SDS011;63191;39.566;2.654;2023-04-09T13:44:19;3.40;;;1.40;;
74660;SDS011;63191;39.566;2.654;2023-04-09T13:46:45;5.60;;;1.50;;
74660;SDS011;63191;39.566;2.654;2023-04-09T13:49:10;5.70;;;1.50;;
74660;SDS011;63191;39.566;2.654;2023-04-09T13:51:36;3.60;;;1.00;;
74660;SDS011;63191;39.566;2.654;2023-04-09T13:54:02;3.90;;;1.00;;
74660;SDS011;63191;39.566;2.654;2023-04-09T13:56:30;6.00;;;1.20;;
74660;SDS011;63191;39.566;2.654;2023-04-09T13:58:55;4.60;;;1.10;;
74660;SDS011;63191;39.566;2.654;2023-04-09T14:01:21;3.70;;;0.90;;
74660;SDS011;63191;39.566;2.654;2023-04-09T14:03:47;4.30;;;0.90;;
74660;SDS011;63191;39.566;2.654;2023-04-09T14:06:12;3.60;;;0.90;;
74660;SDS011;63191;39.566;2.654;2023-04-09T14:08:38;3.40;;;0.80;;
74660;SDS011;63191;39.566;2.654;2023-04-09T14:11:04;3.20;;;0.80;;
74660;SDS011;63191;39.566;2.654;2023-04-09T14:13:31;4.10;;;0.90;;
74660;SDS011;63191;39.566;2.654;2023-04-09T14:15:57;1.70;;;0.60;;
74660;SDS011;63191;39.566;2.654;2023-04-09T14:18:23;6.70;;;0.90;;
74660;SDS011;63191;39.566;2.654;2023-04-09T14:20:49;3.40;;;0.80;;
74660;SDS011;63191;39.566;2.654;2023-04-09T14:23:15;3.20;;;0.70;;
74660;SDS011;63191;39.566;2.654;2023-04-09T14:25:41;3.00;;;0.60;;
74660;SDS011;63191;39.566;2.654;2023-04-09T14:28:06;4.40;;;0.70;;
74660;SDS011;63191;39.566;2.654;2023-04-09T14:30:32;2.90;;;0.50;;
74660;SDS011;63191;39.566;2.654;2023-04-09T14:33:00;3.60;;;0.70;;
74660;SDS011;63191;39.566;2.654;2023-04-09T14:35:25;2.30;;;0.80;;
74660;SDS011;63191;39.566;2.654;2023-04-09T14:37:51;3.90;;;0.80;;
74660;SDS011;63191;39.566;2.654;2023-04-09T14:40:17;3.60;;;0.70;;
74660;SDS011;63191;39.566;2.654;2023-04-09T14:42:44;3.50;;;0.60;;
74660;SDS011;63191;39.566;2.654;2023-04-09T14:45:10;4.60;;;0.80;;
74660;SDS011;63191;39.566;2.654;2023-04-09T14:47:35;2.10;;;0.50;;
74660;SDS011;63191;39.566;2.654;2023-04-09T14:50:02;3.60;;;0.80;;
74660;SDS011;63191;39.566;2.654;2023-04-09T14:52:28;3.60;;;0.70;;
74660;SDS011;63191;39.566;2.654;2023-04-09T14:54:55;2.90;;;0.70;;
74660;SDS011;63191;39.566;2.654;2023-04-09T14:57:21;2.30;;;0.60;;
74660;SDS011;63191;39.566;2.654;2023-04-09T14:59:47;1.90;;;0.50;;
74660;SDS011;63191;39.566;2.654;2023-04-09T15:02:12;3.20;;;0.70;;
74660;SDS011;63191;39.566;2.654;2023-04-09T15:04:38;4.00;;;0.80;;
74660;SDS011;63191;39.566;2.654;2023-04-09T15:07:04;5.00;;;0.70;;
74660;SDS011;63191;39.566;2.654;2023-04-09T15:09:31;3.50;;;0.80;;